Time;durP1;ratioP1;P1;durP2;ratioP2;P2;SDS_P1;SDS_P2;PMS_P1;PMS_P2;Temp;Humidity;BMP_temperature;BMP_pressure;BME280_temperature;BME280_humidity;BME280_pressure;Samples;Min_cycle;Max_cycle;Signal;HPM_P1;HPM_P2
2021/09/13 00:00:04;;;;;;;;;;;16.10;1.00;;;;;;5132209;27;20256;-71
2021/09/13 00:02:31;;;;;;;;;;;16.20;1.00;;;;;;5131774;27;19911;-70
2021/09/13 00:04:56;;;;;;;;;;;16.20;1.00;;;;;;5131821;27;20003;-71
2021/09/13 00:07:23;;;;;;;;;;;16.20;1.00;;;;;;5132155;27;20002;-70
2021/09/13 00:09:48;;;;;;;;;;;16.20;1.00;;;;;;5132282;27;19908;-71
2021/09/13 00:12:14;;;;;;;;;;;16.20;1.00;;;;;;5131796;27;19911;-71
2021/09/13 00:14:39;;;;;;;;;;;16.30;1.00;;;;;;5115710;27;20257;-71
2021/09/13 00:17:05;;;;;;;;;;;16.30;1.00;;;;;;5112099;28;19907;-71
2021/09/13 00:19:30;;;;;;;;;;;16.40;1.00;;;;;;5111177;28;19912;-70
2021/09/13 00:21:56;;;;;;;;;;;16.40;1.00;;;;;;5111139;28;19922;-70
2021/09/13 00:24:22;;;;;;;;;;;16.40;99.90;;;;;;5111708;28;19912;-70
2021/09/13 00:26:48;;;;;;;;;;;16.40;99.90;;;;;;5096053;28;20005;-71
2021/09/13 00:29:13;;;;;;;;;;;16.40;99.90;;;;;;5101131;28;19947;-71
2021/09/13 00:31:39;;;;;;;;;;;16.40;99.90;;;;;;5111012;28;19991;-71
2021/09/13 00:34:04;;;;;;;;;;;16.50;99.90;;;;;;5111041;28;20283;-71
2021/09/13 00:36:30;;;;;;;;;;;16.40;99.90;;;;;;5110753;28;19914;-71
2021/09/13 00:38:55;;;;;;;;;;;16.40;99.90;;;;;;5111734;28;19962;-71
2021/09/13 00:41:21;;;;;;;;;;;16.40;99.90;;;;;;5111108;28;20007;-70
2021/09/13 00:43:47;;;;;;;;;;;16.40;99.90;;;;;;5110338;28;20470;-69
2021/09/13 00:46:12;;;;;;;;;;;16.40;99.90;;;;;;5110977;28;20433;-70
2021/09/13 00:48:38;;;;;;;;;;;16.40;99.90;;;;;;5111507;28;19912;-71
2021/09/13 00:51:04;;;;;;;;;;;16.50;99.90;;;;;;5103405;28;19919;-69
2021/09/13 00:53:31;;;;;;;;;;;16.50;99.90;;;;;;5110849;28;20030;-70
2021/09/13 00:55:57;;;;;;;;;;;16.50;99.90;;;;;;5110514;28;19912;-71
2021/09/13 00:58:24;;;;;;;;;;;16.50;99.90;;;;;;5110856;28;19993;-71
2021/09/13 01:00:49;;;;;;;;;;;16.50;99.90;;;;;;5108992;28;19951;-71
2021/09/13 01:03:15;;;;;;;;;;;16.50;99.90;;;;;;5109237;28;19951;-70
2021/09/13 01:05:40;;;;;;;;;;;16.50;99.90;;;;;;5109046;28;19932;-70
2021/09/13 01:08:06;;;;;;;;;;;16.50;99.90;;;;;;5110734;28;19912;-70
2021/09/13 01:10:31;;;;;;;;;;;16.50;99.90;;;;;;5092253;28;20382;-70
2021/09/13 01:12:57;;;;;;;;;;;16.50;99.90;;;;;;5109922;28;19919;-71
2021/09/13 01:15:22;;;;;;;;;;;16.50;99.90;;;;;;5110290;28;19943;-71
2021/09/13 01:17:48;;;;;;;;;;;16.50;99.90;;;;;;5110087;28;19912;-70
2021/09/13 01:20:13;;;;;;;;;;;16.50;99.90;;;;;;5108809;28;19972;-70
2021/09/13 01:22:40;;;;;;;;;;;16.50;99.90;;;;;;5109926;28;19919;-70
2021/09/13 01:25:06;;;;;;;;;;;16.50;99.90;;;;;;5108683;28;19915;-70
2021/09/13 01:27:31;;;;;;;;;;;16.50;99.90;;;;;;5090264;28;19916;-71
2021/09/13 01:29:57;;;;;;;;;;;16.50;21.00;;;;;;5105651;28;20432;-71
2021/09/13 01:32:23;;;;;;;;;;;16.50;58.90;;;;;;5109165;28;19945;-71
2021/09/13 01:34:48;;;;;;;;;;;16.40;26.60;;;;;;5109402;28;19907;-71
2021/09/13 01:37:14;;;;;;;;;;;16.30;92.90;;;;;;5110105;28;19912;-71
2021/09/13 01:39:39;;;;;;;;;;;16.20;99.90;;;;;;5110140;28;20011;-71
2021/09/13 01:42:05;;;;;;;;;;;16.10;99.90;;;;;;5108703;28;19912;-70
2021/09/13 01:44:30;;;;;;;;;;;16.10;99.90;;;;;;5109705;28;19908;-71
2021/09/13 01:46:56;;;;;;;;;;;16.00;99.90;;;;;;5109824;28;19915;-71
2021/09/13 01:49:21;;;;;;;;;;;15.90;99.90;;;;;;5109696;28;20284;-70
2021/09/13 01:51:47;;;;;;;;;;;15.80;99.90;;;;;;5108995;28;20441;-71
2021/09/13 01:54:13;;;;;;;;;;;15.80;1.00;;;;;;5117064;27;19915;-71
2021/09/13 01:56:38;;;;;;;;;;;15.70;1.00;;;;;;5130838;27;19915;-71
2021/09/13 01:59:04;;;;;;;;;;;15.70;1.00;;;;;;5111848;27;19914;-70
2021/09/13 02:01:30;;;;;;;;;;;15.70;1.00;;;;;;5129238;27;19911;-71
2021/09/13 02:03:55;;;;;;;;;;;15.60;1.00;;;;;;5129573;27;19907;-71
2021/09/13 02:06:21;;;;;;;;;;;15.60;1.00;;;;;;5128736;27;20311;-71
2021/09/13 02:08:47;;;;;;;;;;;15.60;1.00;;;;;;5130386;27;20213;-71
2021/09/13 02:11:12;;;;;;;;;;;15.60;1.00;;;;;;5129992;27;19907;-71
2021/09/13 02:13:38;;;;;;;;;;;15.60;1.00;;;;;;5120891;27;20097;-71
2021/09/13 02:16:04;;;;;;;;;;;15.70;1.00;;;;;;5109498;28;19931;-71
2021/09/13 02:18:29;;;;;;;;;;;15.70;1.00;;;;;;5109432;28;19908;-70
2021/09/13 02:20:55;;;;;;;;;;;15.70;1.00;;;;;;5108701;28;19953;-70
2021/09/13 02:23:20;;;;;;;;;;;15.70;1.00;;;;;;5109152;28;20392;-71
2021/09/13 02:25:46;;;;;;;;;;;15.60;1.00;;;;;;5109389;28;19941;-71
2021/09/13 02:28:12;;;;;;;;;;;15.60;1.00;;;;;;5109294;28;19998;-71
2021/09/13 02:30:37;;;;;;;;;;;15.60;1.00;;;;;;5090794;28;19911;-70
2021/09/13 02:33:03;;;;;;;;;;;15.50;1.00;;;;;;5112674;28;19951;-71
2021/09/13 02:35:29;;;;;;;;;;;15.50;1.00;;;;;;5113004;28;19957;-71
2021/09/13 02:37:54;;;;;;;;;;;15.50;1.00;;;;;;5114957;28;19916;-70
2021/09/13 02:40:20;;;;;;;;;;;15.40;1.00;;;;;;5113094;28;20329;-70
2021/09/13 02:42:45;;;;;;;;;;;15.40;1.00;;;;;;5113032;28;19911;-71
2021/09/13 02:45:11;;;;;;;;;;;15.30;1.00;;;;;;5113158;28;19914;-70
2021/09/13 02:47:36;;;;;;;;;;;15.30;1.00;;;;;;5113337;28;19999;-71
2021/09/13 02:50:03;;;;;;;;;;;15.30;1.00;;;;;;5112662;28;20253;-70
2021/09/13 02:52:28;;;;;;;;;;;15.30;1.00;;;;;;5094003;28;19916;-70
2021/09/13 02:54:54;;;;;;;;;;;15.30;1.00;;;;;;5126559;27;19949;-71
2021/09/13 02:57:19;;;;;;;;;;;15.40;1.00;;;;;;5133968;27;19950;-71
2021/09/13 02:59:46;;;;;;;;;;;15.40;1.00;;;;;;5133425;27;19908;-70
2021/09/13 03:02:12;;;;;;;;;;;15.40;1.00;;;;;;5108930;27;19973;-71
2021/09/13 03:04:38;;;;;;;;;;;15.40;1.00;;;;;;5091486;28;19916;-70
2021/09/13 03:07:03;;;;;;;;;;;15.50;1.00;;;;;;5092728;28;19912;-70
2021/09/13 03:09:29;;;;;;;;;;;15.40;1.00;;;;;;5092507;28;20215;-70
2021/09/13 03:11:54;;;;;;;;;;;15.40;1.00;;;;;;5091968;28;19909;-71
2021/09/13 03:14:20;;;;;;;;;;;15.40;1.00;;;;;;5106034;28;19914;-71
2021/09/13 03:16:46;;;;;;;;;;;15.40;1.00;;;;;;5112277;28;20049;-70
2021/09/13 03:19:11;;;;;;;;;;;15.40;1.00;;;;;;5113033;28;19942;-70
2021/09/13 03:21:37;;;;;;;;;;;15.40;1.00;;;;;;5111716;28;20284;-69
2021/09/13 03:24:03;;;;;;;;;;;15.40;1.00;;;;;;5112162;28;19908;-70
2021/09/13 03:26:29;;;;;;;;;;;15.40;1.00;;;;;;5099164;28;19993;-72
2021/09/13 03:28:55;;;;;;;;;;;15.40;1.00;;;;;;5099270;28;19915;-72
2021/09/13 03:31:20;;;;;;;;;;;15.40;1.00;;;;;;5111967;28;19907;-71
2021/09/13 03:33:46;;;;;;;;;;;15.40;1.00;;;;;;5111634;28;20373;-72
2021/09/13 03:36:11;;;;;;;;;;;15.40;1.00;;;;;;5112001;28;20420;-71
2021/09/13 03:38:37;;;;;;;;;;;15.30;1.00;;;;;;5112357;28;19961;-71
2021/09/13 03:41:02;;;;;;;;;;;15.30;1.00;;;;;;5112028;28;19919;-71
2021/09/13 03:43:27;;;;;;;;;;;15.20;1.00;;;;;;5110172;28;19907;-71
2021/09/13 03:45:54;;;;;;;;;;;15.20;1.00;;;;;;5111973;28;19912;-71
2021/09/13 03:48:20;;;;;;;;;;;15.10;1.00;;;;;;5112155;28;19954;-71
2021/09/13 03:50:46;;;;;;;;;;;15.10;1.00;;;;;;5104712;28;19972;-71
2021/09/13 03:53:11;;;;;;;;;;;15.10;1.00;;;;;;5111723;28;19919;-72
2021/09/13 03:55:37;;;;;;;;;;;15.00;1.00;;;;;;5112108;28;19976;-71
2021/09/13 03:58:03;;;;;;;;;;;15.00;1.00;;;;;;5111907;28;20371;-71
2021/09/13 04:00:29;;;;;;;;;;;15.00;1.00;;;;;;5112146;28;19942;-71
2021/09/13 04:02:54;;;;;;;;;;;14.90;1.00;;;;;;5092120;28;19911;-71
2021/09/13 04:05:22;;;;;;;;;;;14.90;1.00;;;;;;5111007;28;19965;-70
2021/09/13 04:12:48;;;;;;;;;;;14.80;1.00;;;;;;5110831;28;19980;-70
2021/09/13 04:15:14;;;;;;;;;;;14.80;1.00;;;;;;5111098;28;20532;-71
2021/09/13 04:17:40;;;;;;;;;;;14.80;1.00;;;;;;5111644;28;19923;-71
2021/09/13 04:20:06;;;;;;;;;;;14.70;1.00;;;;;;5111077;28;19908;-72
2021/09/13 04:22:31;;;;;;;;;;;14.60;1.00;;;;;;5110966;28;20009;-71
2021/09/13 04:24:58;;;;;;;;;;;14.60;1.00;;;;;;5111362;28;19907;-71
2021/09/13 04:27:24;;;;;;;;;;;14.50;1.00;;;;;;5091208;28;19908;-71
2021/09/13 04:29:49;;;;;;;;;;;14.50;1.00;;;;;;5105725;28;19927;-71
2021/09/13 04:32:15;;;;;;;;;;;14.40;1.00;;;;;;5110381;28;20435;-68
2021/09/13 04:34:40;;;;;;;;;;;14.40;1.00;;;;;;5106246;28;19912;-67
2021/09/13 04:37:06;;;;;;;;;;;14.40;1.00;;;;;;5110482;28;20248;-68
2021/09/13 04:39:31;;;;;;;;;;;14.40;1.00;;;;;;5110765;28;20006;-67
2021/09/13 04:41:57;;;;;;;;;;;14.40;1.00;;;;;;5110325;28;19923;-67
2021/09/13 04:44:22;;;;;;;;;;;14.40;1.00;;;;;;5109891;28;19972;-68
2021/09/13 04:46:48;;;;;;;;;;;14.40;1.00;;;;;;5110680;28;20426;-68
2021/09/13 04:49:13;;;;;;;;;;;14.40;1.00;;;;;;5110544;28;19914;-69
2021/09/13 04:51:39;;;;;;;;;;;14.40;1.00;;;;;;5108332;28;20060;-70
2021/09/13 04:54:04;;;;;;;;;;;14.50;1.00;;;;;;5108369;28;19908;-68
2021/09/13 04:56:29;;;;;;;;;;;14.50;1.00;;;;;;5110859;28;19961;-68
2021/09/13 04:58:55;;;;;;;;;;;14.50;1.00;;;;;;5110876;28;19912;-68
2021/09/13 05:01:21;;;;;;;;;;;14.50;1.00;;;;;;5110245;28;20003;-67
2021/09/13 05:03:47;;;;;;;;;;;14.50;1.00;;;;;;5110645;28;19912;-68
2021/09/13 05:06:13;;;;;;;;;;;14.50;1.00;;;;;;5110030;28;19912;-68
2021/09/13 05:08:38;;;;;;;;;;;14.60;1.00;;;;;;5110903;28;19964;-67
2021/09/13 05:11:04;;;;;;;;;;;14.70;1.00;;;;;;5108255;28;19916;-66
2021/09/13 05:13:30;;;;;;;;;;;14.80;1.00;;;;;;5109369;28;19912;-66
2021/09/13 05:15:55;;;;;;;;;;;14.90;1.00;;;;;;5110555;28;19908;-67
2021/09/13 05:18:20;;;;;;;;;;;15.10;1.00;;;;;;5111270;28;19942;-67
2021/09/13 05:20:46;;;;;;;;;;;15.30;1.00;;;;;;5110264;28;20014;-68
2021/09/13 05:23:12;;;;;;;;;;;15.70;1.00;;;;;;5109035;28;19927;-67
2021/09/13 05:25:37;;;;;;;;;;;16.10;99.90;;;;;;5106264;28;20003;-70
2021/09/13 05:28:03;;;;;;;;;;;16.40;61.30;;;;;;5107393;28;20140;-69
2021/09/13 05:30:29;;;;;;;;;;;16.90;73.30;;;;;;5107804;28;19912;-69
2021/09/13 05:32:54;;;;;;;;;;;17.40;99.90;;;;;;5092654;28;20012;-70
2021/09/13 05:35:20;;;;;;;;;;;18.10;1.00;;;;;;5106177;28;19912;-67
2021/09/13 05:37:46;;;;;;;;;;;18.70;1.00;;;;;;5107108;28;19919;-67
2021/09/13 05:40:11;;;;;;;;;;;19.50;99.90;;;;;;5108258;28;19912;-67
2021/09/13 05:42:37;;;;;;;;;;;19.90;1.00;;;;;;5104912;28;20012;-68
2021/09/13 05:45:03;;;;;;;;;;;20.50;1.00;;;;;;5106664;28;19962;-68
2021/09/13 05:47:29;;;;;;;;;;;20.80;1.00;;;;;;5087782;28;20402;-68
2021/09/13 05:49:54;;;;;;;;;;;21.20;1.00;;;;;;5096249;28;20028;-67
2021/09/13 05:52:20;;;;;;;;;;;21.80;1.00;;;;;;5106602;28;20284;-68
2021/09/13 05:54:45;;;;;;;;;;;22.30;99.90;;;;;;5106437;28;20014;-67
2021/09/13 05:57:11;;;;;;;;;;;23.10;99.90;;;;;;5107455;28;19912;-69
2021/09/13 05:59:36;;;;;;;;;;;23.30;99.90;;;;;;5104444;28;20006;-69
2021/09/13 06:02:02;;;;;;;;;;;23.40;99.90;;;;;;5085903;28;19918;-68
2021/09/13 06:04:32;;;;;;;;;;;23.40;99.90;;;;;;5086416;28;19919;-68
2021/09/13 06:06:58;;;;;;;;;;;23.20;99.90;;;;;;5085281;28;19919;-69
2021/09/13 06:09:24;;;;;;;;;;;22.70;99.90;;;;;;5087975;28;19908;-68
2021/09/13 06:11:49;;;;;;;;;;;22.00;99.90;;;;;;5086282;28;19908;-68
2021/09/13 06:14:16;;;;;;;;;;;21.30;99.90;;;;;;5099977;28;20290;-67
2021/09/13 06:16:42;;;;;;;;;;;20.60;99.90;;;;;;5107452;28;19934;-69
2021/09/13 06:19:09;;;;;;;;;;;20.20;99.90;;;;;;5107770;28;19908;-69
2021/09/13 06:21:34;;;;;;;;;;;20.10;99.90;;;;;;5106796;28;19912;-67
2021/09/13 06:24:00;;;;;;;;;;;20.30;99.90;;;;;;5106211;28;19908;-68
2021/09/13 06:26:26;;;;;;;;;;;21.10;99.90;;;;;;5093980;28;19935;-68
2021/09/13 06:28:51;;;;;;;;;;;22.00;99.90;;;;;;5093883;28;20075;-67
2021/09/13 06:31:17;;;;;;;;;;;23.20;99.90;;;;;;5107298;28;20006;-68
2021/09/13 06:33:42;;;;;;;;;;;24.30;99.90;;;;;;5122080;28;19907;-68
2021/09/13 06:36:08;;;;;;;;;;;25.70;99.90;;;;;;5127173;28;19942;-67
2021/09/13 06:38:33;;;;;;;;;;;27.20;99.90;;;;;;5131363;28;19907;-68
2021/09/13 06:40:59;;;;;;;;;;;28.60;99.90;;;;;;5130356;28;19911;-68
2021/09/13 06:43:28;;;;;;;;;;;29.80;99.90;;;;;;5129362;28;19937;-69
2021/09/13 06:48:42;;;;;;;;;;;32.00;99.90;;;;;;5130810;28;19915;-67
2021/09/13 06:51:08;;;;;;;;;;;33.00;99.90;;;;;;5129707;28;19951;-67
2021/09/13 06:53:33;;;;;;;;;;;34.20;99.90;;;;;;5130070;28;19936;-69
2021/09/13 06:55:59;;;;;;;;;;;35.00;99.90;;;;;;5129889;28;19919;-69
2021/09/13 06:58:25;;;;;;;;;;;35.50;99.90;;;;;;5129889;28;19959;-69
2021/09/13 07:00:52;;;;;;;;;;;36.20;99.90;;;;;;5129942;28;19958;-69
2021/09/13 07:03:19;;;;;;;;;;;37.50;99.90;;;;;;5135654;28;19912;-69
2021/09/13 07:05:45;;;;;;;;;;;38.00;99.90;;;;;;5134801;28;19907;-69
2021/09/13 07:08:10;;;;;;;;;;;38.50;99.90;;;;;;5133053;28;20391;-69
2021/09/13 07:10:36;;;;;;;;;;;39.20;99.90;;;;;;5133309;28;20595;-69
2021/09/13 07:13:01;;;;;;;;;;;39.50;99.90;;;;;;5130594;28;19946;-69
2021/09/13 07:15:27;;;;;;;;;;;40.60;99.90;;;;;;5112568;28;19908;-69
2021/09/13 07:17:52;;;;;;;;;;;41.40;99.90;;;;;;5114772;28;20459;-69
2021/09/13 07:20:18;;;;;;;;;;;41.80;99.90;;;;;;5112591;28;19912;-69
2021/09/13 07:22:44;;;;;;;;;;;41.80;99.90;;;;;;5112293;28;19947;-69
2021/09/13 07:25:09;;;;;;;;;;;41.60;94.40;;;;;;5112682;28;20019;-69
2021/09/13 07:27:35;;;;;;;;;;;41.90;86.50;;;;;;5113012;28;20421;-69
2021/09/13 07:30:02;;;;;;;;;;;42.40;75.90;;;;;;5112400;28;19912;-69
2021/09/13 07:32:28;;;;;;;;;;;42.30;64.00;;;;;;5116364;27;19912;-69
2021/09/13 07:34:53;;;;;;;;;;;42.30;56.00;;;;;;5132108;27;19911;-69
2021/09/13 07:37:19;;;;;;;;;;;41.80;48.20;;;;;;5133434;27;19907;-69
2021/09/13 07:39:44;;;;;;;;;;;43.20;45.40;;;;;;5133270;27;20339;-69
2021/09/13 07:42:10;;;;;;;;;;;43.20;38.60;;;;;;5132764;27;19912;-69
2021/09/13 07:44:35;;;;;;;;;;;41.40;31.70;;;;;;5132688;27;19980;-68
2021/09/13 07:47:01;;;;;;;;;;;41.20;28.60;;;;;;5133331;27;20109;-69
2021/09/13 07:49:27;;;;;;;;;;;42.20;26.60;;;;;;5133125;27;19908;-68
2021/09/13 07:51:53;;;;;;;;;;;42.30;23.50;;;;;;5132586;27;20418;-69
2021/09/13 07:54:18;;;;;;;;;;;42.10;20.60;;;;;;5135179;27;20221;-68
2021/09/13 07:56:44;;;;;;;;;;;43.30;18.80;;;;;;5135375;27;20040;-69
2021/09/13 07:59:09;;;;;;;;;;;44.20;17.10;;;;;;5134160;27;20352;-69
2021/09/13 08:01:35;;;;;;;;;;;45.70;15.30;;;;;;5133387;27;19919;-68
2021/09/13 08:04:00;;;;;;;;;;;46.30;12.40;;;;;;5135356;27;20246;-68
2021/09/13 08:06:26;;;;;;;;;;;46.90;9.80;;;;;;5133337;27;19908;-68
2021/09/13 08:08:51;;;;;;;;;;;47.10;6.70;;;;;;5134223;27;20113;-69
2021/09/13 08:11:17;;;;;;;;;;;47.90;4.60;;;;;;5134437;27;19911;-68
2021/09/13 08:13:43;;;;;;;;;;;48.70;2.20;;;;;;5124956;27;19912;-68
2021/09/13 08:16:09;;;;;;;;;;;49.10;1.00;;;;;;5117489;28;19911;-69
2021/09/13 08:18:35;;;;;;;;;;;49.20;1.00;;;;;;5118651;28;19973;-69
2021/09/13 08:21:01;;;;;;;;;;;49.20;1.00;;;;;;5113893;28;19931;-69
2021/09/13 08:23:26;;;;;;;;;;;49.40;1.00;;;;;;5112175;28;19934;-68
2021/09/13 08:25:51;;;;;;;;;;;49.30;1.00;;;;;;5112150;28;19966;-68
2021/09/13 08:28:20;;;;;;;;;;;49.30;1.00;;;;;;5111620;28;20428;-69
2021/09/13 08:30:46;;;;;;;;;;;48.70;1.00;;;;;;5111922;28;19930;-68
2021/09/13 08:33:12;;;;;;;;;;;48.60;1.00;;;;;;5122033;27;19911;-68
2021/09/13 08:35:37;;;;;;;;;;;49.20;1.00;;;;;;5131753;27;20276;-69
2021/09/13 08:38:03;;;;;;;;;;;49.90;1.00;;;;;;5132637;27;20524;-69
2021/09/13 08:40:28;;;;;;;;;;;50.70;1.00;;;;;;5114126;27;19907;-68
2021/09/13 08:42:54;;;;;;;;;;;51.30;1.00;;;;;;5131528;27;19907;-68
2021/09/13 08:45:29;;;;;;;;;;;51.20;1.00;;;;;;5131997;27;19950;-68
2021/09/13 08:48:06;;;;;;;;;;;51.60;1.00;;;;;;5132456;27;19908;-69
2021/09/13 08:53:33;;;;;;;;;;;51.60;1.00;;;;;;5085856;27;19915;-68
2021/09/13 08:55:59;;;;;;;;;;;51.10;1.00;;;;;;5132169;27;19908;-69
2021/09/13 08:58:25;;;;;;;;;;;50.10;1.00;;;;;;5131906;27;19922;-69
2021/09/13 09:00:51;;;;;;;;;;;50.70;1.00;;;;;;5131702;27;19911;-68
2021/09/13 09:03:17;;;;;;;;;;;48.70;1.00;;;;;;5130681;27;19941;-68
2021/09/13 09:05:43;;;;;;;;;;;49.10;1.00;;;;;;5131239;27;20003;-69
2021/09/13 09:08:12;;;;;;;;;;;48.70;1.00;;;;;;5131853;27;20071;-68
2021/09/13 09:10:37;;;;;;;;;;;47.60;1.00;;;;;;5131763;27;19998;-68
2021/09/13 09:13:10;;;;;;;;;;;46.40;1.00;;;;;;5127464;27;20402;-70
2021/09/13 09:15:51;;;;;;;;;;;46.60;1.00;;;;;;5111244;28;19919;-69
2021/09/13 09:18:17;;;;;;;;;;;46.90;1.00;;;;;;5111397;28;19948;-69
2021/09/13 09:20:42;;;;;;;;;;;46.70;1.00;;;;;;5106934;28;20059;-69
2021/09/13 09:23:08;;;;;;;;;;;46.30;1.00;;;;;;5110192;28;20389;-69
2021/09/13 09:25:36;;;;;;;;;;;46.30;1.00;;;;;;5105148;28;19944;-69
2021/09/13 09:28:06;;;;;;;;;;;45.40;1.00;;;;;;5090992;28;20418;-69
2021/09/13 09:30:48;;;;;;;;;;;42.70;1.00;;;;;;5110294;28;19916;-70
2021/09/13 09:33:15;;;;;;;;;;;43.20;1.00;;;;;;5120671;27;19914;-69
2021/09/13 09:35:42;;;;;;;;;;;42.80;1.00;;;;;;5130741;27;20225;-70
2021/09/13 09:41:02;;;;;;;;;;;45.40;1.00;;;;;;5322091;22;20035;-68
2021/09/13 09:43:31;;;;;;;;;;;46.40;1.00;;;;;;5051386;28;20003;-68
2021/09/13 09:45:58;;;;;;;;;;;45.60;1.00;;;;;;5051456;28;19935;-70
2021/09/13 09:48:32;;;;;;;;;;;45.00;1.00;;;;;;5050768;28;19912;-69
2021/09/13 09:50:58;;;;;;;;;;;43.80;1.00;;;;;;5049022;28;19920;-71
2021/09/13 09:53:29;;;;;;;;;;;42.10;1.00;;;;;;5047915;28;20309;-69
2021/09/13 09:56:08;;;;;;;;;;;43.40;1.00;;;;;;5045300;28;20285;-69
2021/09/13 09:58:34;;;;;;;;;;;43.30;1.00;;;;;;5048731;28;20300;-70
2021/09/13 10:00:59;;;;;;;;;;;43.90;1.00;;;;;;5049010;28;19966;-68
2021/09/13 10:03:29;;;;;;;;;;;44.90;1.00;;;;;;5048876;28;20317;-69
2021/09/13 10:05:55;;;;;;;;;;;45.00;1.00;;;;;;5039717;28;20314;-70
2021/09/13 10:08:21;;;;;;;;;;;43.10;1.00;;;;;;5204745;22;19924;-68
2021/09/13 10:10:47;;;;;;;;;;;40.70;1.00;;;;;;5109458;28;20117;-67
2021/09/13 10:13:12;;;;;;;;;;;40.60;1.00;;;;;;5098479;28;19907;-68
2021/09/13 10:15:38;;;;;;;;;;;41.20;1.00;;;;;;5091884;28;19912;-68
2021/09/13 10:18:03;;;;;;;;;;;40.90;1.00;;;;;;5100897;28;19951;-67
2021/09/13 10:20:29;;;;;;;;;;;40.40;1.00;;;;;;5109764;28;19912;-68
2021/09/13 10:22:55;;;;;;;;;;;39.60;1.00;;;;;;5108921;28;19915;-68
2021/09/13 10:25:21;;;;;;;;;;;38.80;1.00;;;;;;5090776;28;19917;-68
2021/09/13 10:27:47;;;;;;;;;;;38.60;1.00;;;;;;5069225;28;19917;-68
2021/09/13 10:30:16;;;;;;;;;;;39.30;1.00;;;;;;5068614;28;19915;-68
2021/09/13 10:32:42;;;;;;;;;;;40.10;1.00;;;;;;5073809;28;19912;-68
2021/09/13 10:35:08;;;;;;;;;;;41.40;1.00;;;;;;5088718;28;19931;-68
2021/09/13 10:37:54;;;;;;;;;;;40.40;1.00;;;;;;5088856;28;20296;-68
2021/09/13 10:40:25;;;;;;;;;;;40.10;1.00;;;;;;5088997;28;19965;-67
2021/09/13 10:42:52;;;;;;;;;;;40.00;1.00;;;;;;5088805;28;20284;-68
2021/09/13 10:45:17;;;;;;;;;;;39.40;1.00;;;;;;5088775;28;19912;-68
2021/09/13 10:47:44;;;;;;;;;;;39.00;1.00;;;;;;5088650;28;20254;-69
2021/09/13 10:50:10;;;;;;;;;;;38.20;1.00;;;;;;5088380;28;19914;-69
2021/09/13 10:52:35;;;;;;;;;;;38.30;1.00;;;;;;5090012;28;19942;-69
2021/09/13 10:55:07;;;;;;;;;;;38.60;1.00;;;;;;5092435;28;20262;-69
2021/09/13 10:57:51;;;;;;;;;;;38.70;1.00;;;;;;5092508;28;19912;-68
2021/09/13 11:00:36;;;;;;;;;;;38.40;8.10;;;;;;5092799;28;19961;-68
2021/09/13 11:03:20;;;;;;;;;;;37.90;1.00;;;;;;5091520;28;19919;-67
2021/09/13 11:05:46;;;;;;;;;;;37.20;1.00;;;;;;5091289;28;19920;-68
2021/09/13 11:08:25;;;;;;;;;;;36.20;1.00;;;;;;5093264;28;19923;-69
2021/09/13 11:10:51;;;;;;;;;;;35.70;2.30;;;;;;5093320;28;19916;-69
2021/09/13 11:13:16;;;;;;;;;;;33.40;3.30;;;;;;5098366;28;19941;-68
2021/09/13 11:15:49;;;;;;;;;;;32.40;6.90;;;;;;5113060;28;20010;-68
2021/09/13 11:18:34;;;;;;;;;;;31.00;9.30;;;;;;5114904;28;19919;-68
2021/09/13 11:21:12;;;;;;;;;;;30.10;13.70;;;;;;5112951;28;20546;-69
2021/09/13 11:23:38;;;;;;;;;;;30.50;18.70;;;;;;5111843;28;19987;-68
2021/09/13 11:26:03;;;;;;;;;;;31.10;22.40;;;;;;5098060;28;20265;-68
2021/09/13 11:28:29;;;;;;;;;;;31.80;24.00;;;;;;5096827;28;19908;-67
2021/09/13 11:30:54;;;;;;;;;;;32.80;26.10;;;;;;5070878;28;20369;-67
2021/09/13 11:33:20;;;;;;;;;;;32.60;26.10;;;;;;5083388;28;19912;-67
2021/09/13 11:35:45;;;;;;;;;;;31.90;26.80;;;;;;5091336;28;19938;-67
2021/09/13 11:38:11;;;;;;;;;;;31.50;28.80;;;;;;5092145;28;19912;-66
2021/09/13 11:40:36;;;;;;;;;;;31.70;31.00;;;;;;5092153;28;19997;-67
2021/09/13 11:43:09;;;;;;;;;;;32.20;32.00;;;;;;5091563;28;19970;-68
2021/09/13 11:45:34;;;;;;;;;;;32.50;33.10;;;;;;5091532;28;19908;-67
2021/09/13 11:48:06;;;;;;;;;;;32.10;34.10;;;;;;5091151;28;20399;-68
2021/09/13 11:50:34;;;;;;;;;;;32.00;36.00;;;;;;5091043;28;20265;-67
2021/09/13 11:53:09;;;;;;;;;;;31.90;36.70;;;;;;5090738;28;19915;-69
2021/09/13 11:55:35;;;;;;;;;;;32.00;37.90;;;;;;5091023;28;19923;-67
2021/09/13 11:58:01;;;;;;;;;;;31.80;37.90;;;;;;5091446;28;19919;-67
2021/09/13 12:00:31;;;;;;;;;;;31.80;39.60;;;;;;5090876;28;19908;-68
2021/09/13 12:02:57;;;;;;;;;;;31.70;40.20;;;;;;5090398;28;19912;-68
2021/09/13 12:05:23;;;;;;;;;;;31.40;41.50;;;;;;5090048;28;19962;-68
2021/09/13 12:07:50;;;;;;;;;;;31.60;42.20;;;;;;5091752;28;20038;-68
2021/09/13 12:10:17;;;;;;;;;;;31.80;43.60;;;;;;5091037;28;19912;-68
2021/09/13 12:12:47;;;;;;;;;;;32.50;45.20;;;;;;5091846;28;20322;-68
2021/09/13 12:15:13;;;;;;;;;;;32.80;45.20;;;;;;5111988;28;20012;-75
2021/09/13 12:17:43;;;;;;;;;;;32.20;45.30;;;;;;5108899;28;19947;-72
2021/09/13 12:20:12;;;;;;;;;;;32.00;46.80;;;;;;5111038;28;19912;-72
2021/09/13 12:22:38;;;;;;;;;;;32.20;47.00;;;;;;5110258;28;20415;-73
2021/09/13 12:25:17;;;;;;;;;;;31.70;44.60;;;;;;5098442;28;20007;-71
2021/09/13 12:27:47;;;;;;;;;;;32.40;44.30;;;;;;5101890;28;19954;-72
2021/09/13 12:30:14;;;;;;;;;;;33.10;43.00;;;;;;5073520;28;20031;-72
2021/09/13 12:32:47;;;;;;;;;;;33.80;41.80;;;;;;5075374;28;19915;-70
2021/09/13 12:35:13;;;;;;;;;;;34.30;38.50;;;;;;5091151;28;19912;-69
2021/09/13 12:37:39;;;;;;;;;;;34.10;36.10;;;;;;5090927;28;19912;-68
2021/09/13 12:40:04;;;;;;;;;;;34.20;34.60;;;;;;5091131;28;20073;-69
2021/09/13 12:42:30;;;;;;;;;;;34.50;31.50;;;;;;5080395;28;19937;-68
2021/09/13 12:44:59;;;;;;;;;;;34.40;30.60;;;;;;5082640;28;19920;-67
2021/09/13 12:47:25;;;;;;;;;;;34.40;33.40;;;;;;5077676;28;20210;-68
2021/09/13 12:49:52;;;;;;;;;;;34.00;35.30;;;;;;5080824;28;19950;-68
2021/09/13 12:52:17;;;;;;;;;;;33.70;36.20;;;;;;5081539;28;20281;-68
2021/09/13 12:54:43;;;;;;;;;;;33.30;36.50;;;;;;5079558;28;19907;-68
2021/09/13 12:57:08;;;;;;;;;;;32.80;37.50;;;;;;5080476;28;19941;-67
2021/09/13 12:59:34;;;;;;;;;;;32.50;39.20;;;;;;5076057;28;19912;-66
2021/09/13 13:02:10;;;;;;;;;;;32.40;40.30;;;;;;5078256;28;19912;-67
2021/09/13 13:04:36;;;;;;;;;;;32.40;41.10;;;;;;5077383;28;19924;-67
2021/09/13 13:07:03;;;;;;;;;;;32.20;41.70;;;;;;5079551;28;19915;-68
2021/09/13 13:09:29;;;;;;;;;;;32.10;43.60;;;;;;5078007;28;19920;-68
2021/09/13 13:11:54;;;;;;;;;;;32.20;44.40;;;;;;5075361;28;19960;-68
2021/09/13 13:14:19;;;;;;;;;;;32.10;44.30;;;;;;5083352;28;19918;-67
2021/09/13 13:16:46;;;;;;;;;;;31.80;44.60;;;;;;5080243;28;19942;-68
2021/09/13 13:19:12;;;;;;;;;;;31.50;49.00;;;;;;5090646;28;20250;-67
2021/09/13 13:21:40;;;;;;;;;;;31.30;45.70;;;;;;5089416;28;20002;-68
2021/09/13 13:24:06;;;;;;;;;;;31.10;47.80;;;;;;5078268;28;19919;-73
2021/09/13 13:26:32;;;;;;;;;;;30.50;46.40;;;;;;5074953;28;20008;-72
2021/09/13 13:28:57;;;;;;;;;;;29.90;48.10;;;;;;5077373;28;19919;-72
2021/09/13 13:31:23;;;;;;;;;;;29.50;50.10;;;;;;5077020;28;19912;-73
2021/09/13 13:33:48;;;;;;;;;;;28.80;50.40;;;;;;5076666;28;19916;-71
2021/09/13 13:36:14;;;;;;;;;;;28.50;53.20;;;;;;5078183;28;20313;-71
2021/09/13 13:38:40;;;;;;;;;;;28.30;54.10;;;;;;5078444;28;19924;-71
2021/09/13 13:41:05;;;;;;;;;;;28.00;55.40;;;;;;5077425;28;19919;-74
2021/09/13 13:43:31;;;;;;;;;;;27.90;57.10;;;;;;5077792;28;20045;-73
2021/09/13 13:45:56;;;;;;;;;;;27.70;59.10;;;;;;5078978;28;19908;-67
2021/09/13 13:48:22;;;;;;;;;;;27.70;61.70;;;;;;5084878;28;19912;-67
2021/09/13 13:50:47;;;;;;;;;;;27.70;64.00;;;;;;5088699;28;19912;-67
2021/09/13 13:53:13;;;;;;;;;;;27.80;66.10;;;;;;5087680;28;19909;-68
2021/09/13 13:55:38;;;;;;;;;;;27.50;65.00;;;;;;5089207;28;19918;-68
2021/09/13 13:58:04;;;;;;;;;;;27.50;66.90;;;;;;5088926;28;19930;-68
2021/09/13 14:00:29;;;;;;;;;;;27.40;86.90;;;;;;5088969;28;20337;-68
2021/09/13 14:02:55;;;;;;;;;;;27.40;70.70;;;;;;5078391;28;20202;-68
2021/09/13 14:07:56;;;;;;;;;;;27.80;72.30;;;;;;5411054;22;19947;-71
2021/09/13 14:10:21;;;;;;;;;;;27.80;72.30;;;;;;5067698;28;19909;-67
2021/09/13 14:12:47;;;;;;;;;;;27.70;72.80;;;;;;5067343;28;19931;-66
2021/09/13 14:15:13;;;;;;;;;;;27.30;73.10;;;;;;5068747;28;19909;-66
2021/09/13 14:17:38;;;;;;;;;;;27.20;75.00;;;;;;5068425;28;20381;-67
2021/09/13 14:20:05;;;;;;;;;;;26.90;76.80;;;;;;5068141;28;20315;-67
2021/09/13 14:22:30;;;;;;;;;;;26.90;77.30;;;;;;5066088;28;19962;-69
2021/09/13 14:24:57;;;;;;;;;;;26.60;78.90;;;;;;5056317;28;19916;-67
2021/09/13 14:27:23;;;;;;;;;;;26.50;81.00;;;;;;5066894;28;19928;-68
2021/09/13 14:29:48;;;;;;;;;;;26.50;83.00;;;;;;5068753;28;19988;-68
2021/09/13 14:32:14;;;;;;;;;;;26.20;82.30;;;;;;5067656;28;19913;-66
2021/09/13 14:34:39;;;;;;;;;;;26.30;84.40;;;;;;5068077;28;20137;-67